createdAt,value
2018-05-31T00:00:41.886Z,71.19
2018-05-31T00:03:10.328Z,71.04
2018-05-31T00:05:38.787Z,71.42
2018-05-31T00:08:07.224Z,71.45
2018-05-31T00:10:35.585Z,71.71
2018-05-31T00:13:03.965Z,72.03
2018-05-31T00:15:32.346Z,72.31
2018-05-31T00:18:00.823Z,72.13
2018-05-31T00:20:29.235Z,71.79
2018-05-31T00:22:57.571Z,72.09
2018-05-31T00:25:25.947Z,71.84
2018-05-31T00:27:54.311Z,71.96
2018-05-31T00:30:22.663Z,72.01
2018-05-31T00:32:51.119Z,72.19
2018-05-31T00:35:19.490Z,72.56
2018-05-31T00:37:48.145Z,72.43
2018-05-31T00:40:16.494Z,71.98
2018-05-31T00:42:44.836Z,71.81
2018-05-31T00:45:13.355Z,72.14
2018-05-31T00:47:41.735Z,71.56
2018-05-31T00:50:10.129Z,72.37
2018-05-31T00:52:38.770Z,72.85
2018-05-31T00:55:07.067Z,72.47
2018-05-31T00:57:35.379Z,72.30
2018-05-31T01:00:03.875Z,72.73
2018-05-31T01:02:32.276Z,72.56
2018-05-31T01:05:00.558Z,72.84
2018-05-31T01:07:28.946Z,73.14
2018-05-31T01:09:57.458Z,73.17
2018-05-31T01:12:25.745Z,73.54
2018-05-31T01:14:54.081Z,73.34
2018-05-31T01:17:22.902Z,73.33
2018-05-31T01:19:51.200Z,72.83
2018-05-31T01:22:19.444Z,72.77
2018-05-31T01:24:47.679Z,73.46
2018-05-31T01:27:15.994Z,73.45
2018-05-31T01:29:44.118Z,73.56
2018-05-31T01:32:12.248Z,73.66
2018-05-31T01:34:40.520Z,72.56
2018-05-31T01:37:08.880Z,72.82
2018-05-31T01:39:37.246Z,72.98
2018-05-31T01:42:05.628Z,73.31
2018-05-31T01:44:34.039Z,73.85
2018-05-31T01:47:02.295Z,74.71
2018-05-31T01:49:30.681Z,74.70
2018-05-31T01:51:59.078Z,74.21
2018-05-31T01:54:27.431Z,74.30
2018-05-31T01:56:55.759Z,73.80
2018-05-31T01:59:24.139Z,74.90
2018-05-31T02:01:52.487Z,75.50
2018-05-31T02:04:20.821Z,74.40
2018-05-31T02:06:49.195Z,74.60
2018-05-31T02:09:17.479Z,75.54
2018-05-31T02:11:45.759Z,75.87
2018-05-31T02:14:14.970Z,76.01
2018-05-31T02:16:43.352Z,76.04
2018-05-31T02:19:11.782Z,76.11
2018-05-31T02:21:40.139Z,75.74
2018-05-31T02:24:08.459Z,75.67
2018-05-31T02:26:36.749Z,75.09
2018-05-31T02:29:05.046Z,76.26
2018-05-31T02:31:33.280Z,77.15
2018-05-31T02:34:01.629Z,78.27
2018-05-31T02:36:31.814Z,78.46
2018-05-31T02:39:00.131Z,78.22
2018-05-31T02:41:28.483Z,78.24
2018-05-31T02:43:56.788Z,78.84
2018-05-31T02:46:25.068Z,78.29
2018-05-31T02:48:53.414Z,78.46
2018-05-31T02:51:21.823Z,78.52
2018-05-31T02:53:50.123Z,78.58
2018-05-31T02:56:18.411Z,78.92
2018-05-31T02:58:46.679Z,78.88
2018-05-31T03:01:15.103Z,76.88
2018-05-31T03:03:43.439Z,77.74
2018-05-31T03:06:11.851Z,78.25
2018-05-31T03:08:40.240Z,78.49
2018-05-31T03:11:08.551Z,78.41
2018-05-31T03:13:37.031Z,78.49
2018-05-31T03:16:05.571Z,78.35
2018-05-31T03:18:33.958Z,78.18
2018-05-31T03:21:02.373Z,78.09
2018-05-31T03:23:30.724Z,78.08
2018-05-31T03:25:58.974Z,77.94
2018-05-31T03:28:27.263Z,77.75
2018-05-31T03:30:55.532Z,77.60
2018-05-31T03:33:24.208Z,77.59
2018-05-31T03:35:52.551Z,78.07
2018-05-31T03:38:20.859Z,78.05
2018-05-31T03:40:49.202Z,77.88
2018-05-31T03:43:17.516Z,78.24
2018-05-31T03:45:45.859Z,78.75
2018-05-31T03:48:14.166Z,78.76
2018-05-31T03:50:42.752Z,78.63
2018-05-31T03:53:11.083Z,78.32
2018-05-31T03:55:39.419Z,78.12
2018-05-31T03:58:07.687Z,77.85
2018-05-31T04:00:35.955Z,76.97
2018-05-31T04:03:04.219Z,75.04
2018-05-31T04:05:32.558Z,76.01
2018-05-31T04:08:00.960Z,76.24
2018-05-31T04:10:29.266Z,75.54
2018-05-31T04:12:57.652Z,74.78
2018-05-31T04:15:25.822Z,75.04
2018-05-31T04:17:54.068Z,75.89
2018-05-31T04:20:22.375Z,75.69
2018-05-31T04:22:50.728Z,75.60
2018-05-31T04:25:19.049Z,75.00
2018-05-31T04:27:47.426Z,75.54
2018-05-31T04:30:15.688Z,75.66
2018-05-31T04:32:44.107Z,75.51
2018-05-31T04:35:12.440Z,74.13
2018-05-31T04:37:40.823Z,73.62
2018-05-31T04:40:09.808Z,72.54
2018-05-31T04:42:38.119Z,72.49
2018-05-31T04:45:06.436Z,72.87
2018-05-31T04:47:34.722Z,73.21
2018-05-31T04:50:03.032Z,72.75
2018-05-31T04:52:31.322Z,72.65
2018-05-31T04:54:59.976Z,72.16
2018-05-31T04:57:28.212Z,71.88
2018-05-31T04:59:56.496Z,71.56
2018-05-31T05:02:24.763Z,70.68
2018-05-31T05:04:53.049Z,71.15
2018-05-31T05:07:21.341Z,70.93
2018-05-31T05:09:49.610Z,69.81
2018-05-31T05:12:17.795Z,68.61
2018-05-31T05:14:46.054Z,68.52
2018-05-31T05:17:14.295Z,67.99
2018-05-31T05:19:42.479Z,67.45
2018-05-31T05:22:10.680Z,67.12
2018-05-31T05:24:38.915Z,67.07
2018-05-31T05:27:07.142Z,66.62
2018-05-31T05:29:35.311Z,66.01
2018-05-31T05:32:03.882Z,65.60
2018-05-31T05:34:32.060Z,65.48
2018-05-31T05:37:00.283Z,64.44
2018-05-31T05:39:28.419Z,63.68
2018-05-31T05:41:56.650Z,63.54
2018-05-31T05:44:24.873Z,65.02
2018-05-31T05:46:53.070Z,64.96
2018-05-31T05:49:21.227Z,64.40
2018-05-31T05:51:49.413Z,63.64
2018-05-31T05:54:17.550Z,62.76
2018-05-31T05:56:45.716Z,62.33
2018-05-31T05:59:13.935Z,62.34
2018-05-31T06:01:42.179Z,62.50
2018-05-31T06:04:10.348Z,62.76
2018-05-31T06:06:38.607Z,62.20
2018-05-31T06:09:06.843Z,62.46
2018-05-31T06:11:35.062Z,63.83
2018-05-31T06:14:03.460Z,64.36
2018-05-31T06:16:31.659Z,64.36
2018-05-31T06:18:59.843Z,64.14
2018-05-31T06:21:28.051Z,64.09
2018-05-31T06:23:56.334Z,64.17
2018-05-31T06:26:24.555Z,64.82
2018-05-31T06:28:52.859Z,63.57
2018-05-31T06:31:20.983Z,61.74
2018-05-31T06:33:49.160Z,60.30
2018-05-31T06:36:17.629Z,59.25
2018-05-31T06:38:45.788Z,57.92
2018-05-31T06:41:13.976Z,57.00
2018-05-31T06:43:42.478Z,57.22
2018-05-31T06:46:11.154Z,54.71
2018-05-31T06:48:39.335Z,54.18
2018-05-31T06:51:07.523Z,51.86
2018-05-31T06:53:35.786Z,51.39
2018-05-31T06:56:03.998Z,50.00
2018-05-31T06:58:33.129Z,49.49
2018-05-31T07:01:01.270Z,48.78
2018-05-31T07:03:29.519Z,47.08
2018-05-31T07:05:57.773Z,47.18
2018-05-31T07:08:25.984Z,44.65
2018-05-31T07:10:54.622Z,44.21
2018-05-31T07:13:22.946Z,43.96
2018-05-31T07:15:51.273Z,44.16
2018-05-31T07:18:19.575Z,43.69
2018-05-31T07:20:47.914Z,43.43
2018-05-31T07:23:16.168Z,41.48
2018-05-31T07:25:44.491Z,40.36
2018-05-31T07:28:12.974Z,39.55
2018-05-31T07:30:41.280Z,39.43
2018-05-31T07:33:09.721Z,39.21
2018-05-31T07:35:38.277Z,38.50
2018-05-31T07:38:06.643Z,38.62
2018-05-31T07:40:35.157Z,38.75
2018-05-31T07:43:03.363Z,36.80
2018-05-31T07:45:31.613Z,35.58
2018-05-31T07:48:00.035Z,36.89
2018-05-31T07:50:28.306Z,36.31
2018-05-31T07:52:56.531Z,36.62
2018-05-31T07:55:24.839Z,35.84
2018-05-31T07:57:52.978Z,37.17
2018-05-31T08:00:21.321Z,37.19
2018-05-31T08:02:49.691Z,35.61
2018-05-31T08:05:17.951Z,34.01
2018-05-31T08:07:46.055Z,33.44
2018-05-31T08:10:14.573Z,33.05
2018-05-31T08:12:42.801Z,30.95
2018-05-31T08:15:10.992Z,30.60
2018-05-31T08:17:39.455Z,30.42
2018-05-31T08:20:07.740Z,30.25
2018-05-31T08:22:35.867Z,30.36
2018-05-31T08:25:04.169Z,31.44
2018-05-31T08:27:32.394Z,31.20
2018-05-31T08:30:00.595Z,30.30
2018-05-31T08:32:28.847Z,31.24
2018-05-31T08:34:57.096Z,30.83
2018-05-31T08:37:25.428Z,30.06
2018-05-31T08:39:53.742Z,29.54
2018-05-31T08:42:22.047Z,28.27
2018-05-31T08:44:50.368Z,27.19
2018-05-31T08:47:18.639Z,26.99
2018-05-31T08:49:46.860Z,25.16
2018-05-31T08:52:15.165Z,25.37
2018-05-31T08:54:43.415Z,25.69
2018-05-31T08:57:11.910Z,25.58
2018-05-31T08:59:40.127Z,24.54
2018-05-31T09:02:08.357Z,24.48
2018-05-31T09:04:36.552Z,24.95
2018-05-31T09:07:04.722Z,24.54
2018-05-31T09:09:32.891Z,24.39
2018-05-31T09:12:01.219Z,24.67
2018-05-31T09:14:29.418Z,23.26
2018-05-31T09:16:57.595Z,22.83
2018-05-31T09:19:26.163Z,22.46
2018-05-31T09:21:54.400Z,23.08
2018-05-31T09:24:22.528Z,22.61
2018-05-31T09:26:50.774Z,22.96
2018-05-31T09:29:18.911Z,22.73
2018-05-31T09:31:47.071Z,22.67
2018-05-31T09:34:15.362Z,22.56
2018-05-31T09:36:43.619Z,22.71
2018-05-31T09:39:12.520Z,23.75
2018-05-31T09:41:40.688Z,23.65
2018-05-31T09:44:08.859Z,23.20
2018-05-31T09:46:36.965Z,22.46
2018-05-31T09:49:05.166Z,21.82
2018-05-31T09:51:33.309Z,22.48
2018-05-31T09:54:01.566Z,21.18
2018-05-31T09:56:30.331Z,20.71
2018-05-31T09:58:58.491Z,20.62
2018-05-31T10:01:26.646Z,18.93
2018-05-31T10:03:54.869Z,20.43
2018-05-31T10:06:23.045Z,19.13
2018-05-31T10:08:51.223Z,19.29
2018-05-31T10:11:19.357Z,19.37
2018-05-31T10:13:47.511Z,18.71
2018-05-31T10:16:15.883Z,18.81
2018-05-31T10:18:43.968Z,18.01
2018-05-31T10:21:12.082Z,20.29
2018-05-31T10:23:40.269Z,20.21
2018-05-31T10:26:08.457Z,18.60
2018-05-31T10:28:36.546Z,18.54
2018-05-31T10:31:04.723Z,18.64
2018-05-31T10:33:33.031Z,18.51
2018-05-31T10:36:01.103Z,18.76
2018-05-31T10:38:29.199Z,18.10
2018-05-31T10:40:57.360Z,19.04
2018-05-31T10:43:25.575Z,18.79
2018-05-31T10:45:53.643Z,19.42
2018-05-31T10:48:21.743Z,18.73
2018-05-31T10:50:49.860Z,18.92
2018-05-31T10:53:18.008Z,19.24
2018-05-31T10:55:46.174Z,19.21
2018-05-31T10:58:14.299Z,20.90
2018-05-31T11:00:42.380Z,20.54
2018-05-31T11:03:10.820Z,20.19
2018-05-31T11:05:38.960Z,18.56
2018-05-31T11:08:07.051Z,19.28
2018-05-31T11:10:35.208Z,18.98
2018-05-31T11:13:03.328Z,19.65
2018-05-31T11:15:31.512Z,21.13
2018-05-31T11:17:59.678Z,21.32
2018-05-31T11:20:27.731Z,22.41
2018-05-31T11:22:55.860Z,22.87
2018-05-31T11:25:23.992Z,23.08
2018-05-31T11:27:52.119Z,24.18
2018-05-31T11:30:20.319Z,24.50
2018-05-31T11:32:48.471Z,26.18
2018-05-31T11:35:16.839Z,28.89
2018-05-31T11:37:45.271Z,30.32
2018-05-31T11:40:13.623Z,31.17
2018-05-31T11:42:41.979Z,31.79
2018-05-31T11:45:10.338Z,32.22
2018-05-31T11:47:38.727Z,33.28
2018-05-31T11:50:07.119Z,32.87
2018-05-31T11:52:35.482Z,33.49
2018-05-31T11:55:03.840Z,32.10
2018-05-31T11:57:32.375Z,33.25
2018-05-31T12:00:00.747Z,34.03
2018-05-31T12:02:29.127Z,33.64
2018-05-31T12:04:57.475Z,34.09
2018-05-31T12:07:25.816Z,32.31
2018-05-31T12:09:54.193Z,32.84
2018-05-31T12:12:22.626Z,33.08
2018-05-31T12:14:51.030Z,33.02
2018-05-31T12:17:19.477Z,33.31
2018-05-31T12:19:47.842Z,33.13
2018-05-31T12:22:16.317Z,32.81
2018-05-31T12:24:44.700Z,33.20
2018-05-31T12:27:13.080Z,32.22
2018-05-31T12:29:41.444Z,31.99
2018-05-31T12:32:09.838Z,31.00
2018-05-31T12:34:39.242Z,31.72
2018-05-31T12:37:07.602Z,32.26
2018-05-31T12:39:35.963Z,31.50
2018-05-31T12:42:04.358Z,31.33
2018-05-31T12:44:32.720Z,32.28
2018-05-31T12:47:01.099Z,32.52
2018-05-31T12:49:29.479Z,33.29
2018-05-31T12:51:57.912Z,33.37
2018-05-31T12:54:26.304Z,33.59
2018-05-31T12:56:54.679Z,33.70
2018-05-31T12:59:23.056Z,34.76
2018-05-31T13:01:51.422Z,36.18
2018-05-31T13:04:20.060Z,37.85
2018-05-31T13:06:48.445Z,38.04
2018-05-31T13:09:16.842Z,37.83
2018-05-31T13:11:45.261Z,37.96
2018-05-31T13:14:13.702Z,38.38
2018-05-31T13:16:42.100Z,37.53
2018-05-31T13:19:10.492Z,37.33
2018-05-31T13:21:38.887Z,36.96
2018-05-31T13:24:07.267Z,37.19
2018-05-31T13:26:35.670Z,37.86
2018-05-31T13:29:04.092Z,38.56
2018-05-31T13:31:32.498Z,38.15
2018-05-31T13:34:00.947Z,39.29
2018-05-31T13:36:29.636Z,39.03
2018-05-31T13:38:58.008Z,39.52
2018-05-31T13:41:26.359Z,39.67
2018-05-31T13:43:54.749Z,39.50
2018-05-31T13:46:23.098Z,39.48
2018-05-31T13:48:51.763Z,39.21
2018-05-31T13:51:20.130Z,40.56
2018-05-31T13:53:48.548Z,39.56
2018-05-31T13:56:16.948Z,40.63
2018-05-31T13:58:45.302Z,41.33
2018-05-31T14:01:13.670Z,41.14
2018-05-31T14:03:42.060Z,41.35
2018-05-31T14:06:10.443Z,42.01
2018-05-31T14:08:39.075Z,41.35
2018-05-31T14:11:07.486Z,41.13
2018-05-31T14:13:35.901Z,41.34
2018-05-31T14:16:04.373Z,41.24
2018-05-31T14:18:32.762Z,41.09
2018-05-31T14:21:01.119Z,41.06
2018-05-31T14:23:29.771Z,40.92
2018-05-31T14:25:58.212Z,41.66
2018-05-31T14:28:26.579Z,41.49
2018-05-31T14:30:55.283Z,41.73
2018-05-31T14:33:23.690Z,41.46
2018-05-31T14:35:52.103Z,41.44
2018-05-31T14:38:20.515Z,41.57
2018-05-31T14:40:49.019Z,40.76
2018-05-31T14:43:17.673Z,41.03
2018-05-31T14:45:46.363Z,40.54
2018-05-31T14:48:14.797Z,40.69
2018-05-31T14:50:44.562Z,40.54
2018-05-31T14:53:13.360Z,39.76
2018-05-31T14:55:41.723Z,40.08
2018-05-31T14:58:10.076Z,39.02
2018-05-31T15:00:38.809Z,40.00
2018-05-31T15:03:07.212Z,39.21
2018-05-31T15:05:35.552Z,39.82
2018-05-31T15:08:04.124Z,39.38
2018-05-31T15:10:32.523Z,39.37
2018-05-31T15:13:00.914Z,39.85
2018-05-31T15:15:29.571Z,39.24
2018-05-31T15:17:57.970Z,40.05
2018-05-31T15:20:26.348Z,40.12
2018-05-31T15:22:54.872Z,39.73
2018-05-31T15:25:23.253Z,41.20
2018-05-31T15:27:51.646Z,42.27
2018-05-31T15:30:20.154Z,42.05
2018-05-31T15:32:48.521Z,43.29
2018-05-31T15:35:16.862Z,43.70
2018-05-31T15:37:45.220Z,44.22
2018-05-31T15:40:13.623Z,43.20
2018-05-31T15:42:42.003Z,43.00
2018-05-31T15:45:10.532Z,42.82
2018-05-31T15:47:38.902Z,43.20
2018-05-31T15:50:07.259Z,43.52
2018-05-31T15:52:35.723Z,43.79
2018-05-31T15:55:04.121Z,44.27
2018-05-31T15:57:32.879Z,45.09
2018-05-31T16:00:01.235Z,45.33
2018-05-31T16:02:29.612Z,45.10
2018-05-31T16:04:57.983Z,44.70
2018-05-31T16:07:26.363Z,44.89
2018-05-31T16:09:54.736Z,45.31
2018-05-31T16:12:23.080Z,44.31
2018-05-31T16:14:51.508Z,42.85
2018-05-31T16:17:19.892Z,41.30
2018-05-31T16:19:48.271Z,42.25
2018-05-31T16:22:16.940Z,42.38
2018-05-31T16:24:45.304Z,42.35
2018-05-31T16:27:13.671Z,41.04
2018-05-31T16:29:42.059Z,41.05
2018-05-31T16:32:10.442Z,40.62
2018-05-31T16:34:39.073Z,41.03
2018-05-31T16:37:07.439Z,41.09
2018-05-31T16:39:35.787Z,41.27
2018-05-31T16:42:04.540Z,40.92
2018-05-31T16:44:32.911Z,40.43
2018-05-31T16:47:01.323Z,41.68
2018-05-31T16:49:29.979Z,43.31
2018-05-31T16:51:58.371Z,43.73
2018-05-31T16:54:26.744Z,44.09
2018-05-31T16:56:55.316Z,44.51
2018-05-31T16:59:23.719Z,45.33
2018-05-31T17:01:52.125Z,45.54
2018-05-31T17:04:20.540Z,45.64
2018-05-31T17:06:49.146Z,46.15
2018-05-31T17:09:17.491Z,47.09
2018-05-31T17:11:45.875Z,46.47
2018-05-31T17:14:14.290Z,47.15
2018-05-31T17:16:42.650Z,48.23
2018-05-31T17:19:11.062Z,49.63
2018-05-31T17:21:39.489Z,50.44
2018-05-31T17:24:07.848Z,51.85
2018-05-31T17:26:36.220Z,53.88
2018-05-31T17:29:04.595Z,55.08
2018-05-31T17:31:32.974Z,57.27
2018-05-31T17:34:01.385Z,57.50
2018-05-31T17:36:29.772Z,56.51
2018-05-31T17:38:58.128Z,55.76
2018-05-31T17:41:26.600Z,57.29
2018-05-31T17:43:54.966Z,57.87
2018-05-31T17:46:23.357Z,57.86
2018-05-31T17:48:51.744Z,57.85
2018-05-31T17:51:20.099Z,57.23
2018-05-31T17:53:48.662Z,57.50
2018-05-31T17:56:17.022Z,57.30
2018-05-31T17:58:45.406Z,57.51
2018-05-31T18:01:13.803Z,59.61
2018-05-31T18:03:42.182Z,58.93
2018-05-31T18:06:10.573Z,59.20
2018-05-31T18:08:38.998Z,59.94
2018-05-31T18:11:07.357Z,60.32
2018-05-31T18:13:36.339Z,60.85
2018-05-31T18:16:05.105Z,61.14
2018-05-31T18:18:33.584Z,64.36
2018-05-31T18:21:02.055Z,65.74
2018-05-31T18:23:30.441Z,67.52
2018-05-31T18:25:58.984Z,67.17
2018-05-31T18:28:27.431Z,67.88
2018-05-31T18:30:55.844Z,68.96
2018-05-31T18:33:24.192Z,71.47
2018-05-31T18:35:52.810Z,72.55
2018-05-31T18:38:21.171Z,71.72
2018-05-31T18:40:49.523Z,70.92
2018-05-31T18:43:18.055Z,69.11
2018-05-31T18:45:46.471Z,69.33
2018-05-31T18:48:14.867Z,68.40
2018-05-31T18:50:43.447Z,69.94
2018-05-31T18:53:11.817Z,71.21
2018-05-31T18:55:40.207Z,70.62
2018-05-31T18:58:08.705Z,70.93
2018-05-31T19:00:37.099Z,70.87
2018-05-31T19:03:05.475Z,71.40
2018-05-31T19:05:33.953Z,70.82
2018-05-31T19:08:02.355Z,69.72
2018-05-31T19:10:30.715Z,69.06
2018-05-31T19:13:05.229Z,69.23
2018-05-31T19:15:33.647Z,70.08
2018-05-31T19:18:02.002Z,68.88
2018-05-31T19:20:30.389Z,68.23
2018-05-31T19:22:58.743Z,69.91
2018-05-31T19:25:27.119Z,71.14
2018-05-31T19:27:55.491Z,71.30
2018-05-31T19:30:30.139Z,72.25
2018-05-31T19:32:58.536Z,72.48
2018-05-31T19:35:32.975Z,72.46
2018-05-31T19:38:01.315Z,72.81
2018-05-31T19:40:29.695Z,72.50
2018-05-31T19:43:04.555Z,72.94
2018-05-31T19:45:32.923Z,73.73
2018-05-31T19:48:01.281Z,73.20
2018-05-31T19:50:30.023Z,73.20
2018-05-31T19:53:04.512Z,73.87
2018-05-31T19:55:32.883Z,73.89
2018-05-31T19:58:07.320Z,73.24
2018-05-31T20:00:41.775Z,72.92
2018-05-31T20:03:23.087Z,73.22
2018-05-31T20:05:51.870Z,72.70
2018-05-31T20:08:20.221Z,71.67
2018-05-31T20:10:48.526Z,71.50
2018-05-31T20:13:16.910Z,71.91
2018-05-31T20:15:45.318Z,71.55
2018-05-31T20:18:13.728Z,72.20
2018-05-31T20:20:42.137Z,71.87
2018-05-31T20:23:10.467Z,72.03
2018-05-31T20:25:38.831Z,72.67
2018-05-31T20:28:07.153Z,72.78
2018-05-31T20:30:35.901Z,71.21
2018-05-31T20:33:04.263Z,65.51
2018-05-31T20:35:32.661Z,60.78
2018-05-31T20:38:01.300Z,61.41
2018-05-31T20:40:29.615Z,62.64
2018-05-31T20:42:57.922Z,62.84
2018-05-31T20:45:26.255Z,64.89
2018-05-31T20:47:54.666Z,67.28
2018-05-31T20:50:22.994Z,69.83
2018-05-31T20:52:51.295Z,70.88
2018-05-31T20:55:19.635Z,71.48
2018-05-31T20:57:47.983Z,72.06
2018-05-31T21:00:16.367Z,72.51
2018-05-31T21:02:45.432Z,73.25
2018-05-31T21:05:13.806Z,73.05
2018-05-31T21:07:42.176Z,74.27
2018-05-31T21:10:10.542Z,75.04
2018-05-31T21:12:38.908Z,76.20
2018-05-31T21:15:07.367Z,78.66
2018-05-31T21:17:35.747Z,80.10
2018-05-31T21:20:04.168Z,81.92
2018-05-31T21:22:32.624Z,82.27
2018-05-31T21:25:00.975Z,81.60
2018-05-31T21:27:29.298Z,81.12
2018-05-31T21:29:57.611Z,80.95
2018-05-31T21:32:25.971Z,80.40
2018-05-31T21:34:54.321Z,80.16
2018-05-31T21:37:22.637Z,80.10
2018-05-31T21:39:51.241Z,79.96
2018-05-31T21:42:19.557Z,79.15
2018-05-31T21:44:47.892Z,79.32
2018-05-31T21:47:16.375Z,79.01
2018-05-31T21:49:44.730Z,78.13
2018-05-31T21:52:13.124Z,78.84
2018-05-31T21:54:41.512Z,78.78
2018-05-31T21:57:09.822Z,79.90
2018-05-31T21:59:38.476Z,80.86
2018-05-31T22:02:06.810Z,82.26
2018-05-31T22:04:35.127Z,81.79
2018-05-31T22:07:03.457Z,82.37
2018-05-31T22:09:32.088Z,82.22
2018-05-31T22:12:00.406Z,82.13
2018-05-31T22:14:28.809Z,81.73
2018-05-31T22:16:57.163Z,81.63
2018-05-31T22:19:25.491Z,81.16
2018-05-31T22:21:53.867Z,81.33
2018-05-31T22:24:22.311Z,81.31
2018-05-31T22:26:50.684Z,80.94
2018-05-31T22:29:19.015Z,80.83
2018-05-31T22:31:47.322Z,80.71
2018-05-31T22:34:15.781Z,80.34
2018-05-31T22:36:44.098Z,80.51
2018-05-31T22:39:12.506Z,80.06
2018-05-31T22:41:40.812Z,80.43
2018-05-31T22:44:09.186Z,80.54
2018-05-31T22:46:37.564Z,80.64
2018-05-31T22:49:05.879Z,80.50
2018-05-31T22:51:34.208Z,80.12
2018-05-31T22:54:02.576Z,80.58
2018-05-31T22:56:30.949Z,80.38
2018-05-31T22:58:59.657Z,80.46
2018-05-31T23:01:28.023Z,80.21
2018-05-31T23:03:56.396Z,80.02
2018-05-31T23:06:24.788Z,79.80
2018-05-31T23:08:53.158Z,79.01
2018-05-31T23:11:21.501Z,78.81
2018-05-31T23:13:49.859Z,78.72
2018-05-31T23:16:18.223Z,78.65
2018-05-31T23:18:46.742Z,78.66
2018-05-31T23:21:15.107Z,79.68
2018-05-31T23:23:43.488Z,80.82
2018-05-31T23:26:11.852Z,81.12
2018-05-31T23:28:40.248Z,81.24
2018-05-31T23:31:08.612Z,81.39
2018-05-31T23:33:36.987Z,80.61
2018-05-31T23:36:05.520Z,80.64
2018-05-31T23:38:33.918Z,80.84
2018-05-31T23:41:02.322Z,80.92
2018-05-31T23:43:30.686Z,81.07
2018-05-31T23:45:59.055Z,80.79
2018-05-31T23:48:27.476Z,80.93
2018-05-31T23:50:55.827Z,80.84
2018-05-31T23:53:24.243Z,80.84
2018-05-31T23:55:52.607Z,80.59
2018-05-31T23:58:21.024Z,80.71
